createdAt,value
2022-12-09T00:01:08.731Z,9.52
2022-12-09T00:03:35.662Z,9.95
2022-12-09T00:06:07.762Z,8.82
2022-12-09T00:08:35.276Z,8.80
2022-12-09T00:11:02.124Z,9.25
2022-12-09T00:13:30.000Z,8.60
2022-12-09T00:15:57.069Z,9.05
2022-12-09T00:18:24.461Z,10.10
2022-12-09T00:20:51.665Z,9.27
2022-12-09T00:23:18.386Z,9.40
2022-12-09T00:25:45.048Z,9.10
2022-12-09T00:28:11.785Z,8.95
2022-12-09T00:30:38.685Z,9.13
2022-12-09T00:33:05.453Z,9.10
2022-12-09T00:35:32.319Z,9.20
2022-12-09T00:37:59.095Z,9.85
2022-12-09T00:40:25.759Z,8.05
2022-12-09T00:42:52.619Z,8.85
2022-12-09T00:45:19.404Z,8.15
2022-12-09T00:47:46.145Z,8.70
2022-12-09T00:50:12.969Z,8.40
2022-12-09T00:52:39.757Z,8.10
2022-12-09T00:55:07.286Z,8.48
2022-12-09T00:57:34.178Z,8.02
2022-12-09T01:00:00.886Z,8.35
2022-12-09T01:02:27.706Z,7.47
2022-12-09T01:04:54.895Z,8.00
2022-12-09T01:07:21.631Z,7.32
2022-12-09T01:09:48.359Z,8.48
2022-12-09T01:12:15.122Z,7.45
2022-12-09T01:14:41.878Z,6.82
2022-12-09T01:17:08.702Z,6.85
2022-12-09T01:19:35.577Z,7.22
2022-12-09T01:22:02.540Z,6.28
2022-12-09T01:24:29.151Z,7.30
2022-12-09T01:26:55.865Z,6.75
2022-12-09T01:29:22.720Z,6.22
2022-12-09T01:31:49.481Z,6.70
2022-12-09T01:34:16.410Z,6.78
2022-12-09T01:36:43.409Z,6.65
2022-12-09T01:39:11.030Z,6.88
2022-12-09T01:41:37.835Z,6.45
2022-12-09T01:44:10.616Z,6.00
2022-12-09T01:46:37.686Z,5.43
2022-12-09T01:49:06.245Z,6.70
2022-12-09T01:51:33.060Z,6.40
2022-12-09T01:53:59.821Z,6.47
2022-12-09T01:56:35.018Z,6.25
2022-12-09T01:59:14.528Z,6.00
2022-12-09T02:01:44.377Z,5.75
2022-12-09T02:04:11.266Z,4.80
2022-12-09T02:06:38.798Z,4.90
2022-12-09T02:09:05.930Z,4.82
2022-12-09T02:11:45.276Z,4.78
2022-12-09T02:14:33.634Z,4.65
2022-12-09T02:17:00.549Z,3.85
2022-12-09T02:19:38.790Z,4.03
2022-12-09T02:22:08.033Z,4.05
2022-12-09T02:24:46.155Z,4.18
2022-12-09T02:27:28.738Z,3.45
2022-12-09T02:30:04.371Z,3.53
2022-12-09T02:33:02.900Z,3.90
2022-12-09T02:36:03.317Z,4.13
2022-12-09T02:38:32.875Z,4.35
2022-12-09T02:41:30.635Z,4.88
2022-12-09T02:44:04.828Z,3.67
2022-12-09T02:46:34.335Z,4.35
2022-12-09T02:49:01.298Z,4.22
2022-12-09T02:51:32.597Z,4.18
2022-12-09T02:54:05.394Z,4.70
2022-12-09T02:56:33.142Z,4.03
2022-12-09T02:59:00.370Z,4.28
2022-12-09T03:01:49.151Z,4.57
2022-12-09T03:04:22.810Z,4.75
2022-12-09T03:06:54.920Z,4.78
2022-12-09T03:09:27.388Z,4.85
2022-12-09T03:11:58.884Z,4.57
2022-12-09T03:14:36.137Z,4.67
2022-12-09T03:17:18.895Z,5.20
2022-12-09T03:19:47.832Z,4.97
2022-12-09T03:22:20.433Z,5.13
2022-12-09T03:24:53.042Z,4.78
2022-12-09T03:27:26.063Z,4.90
2022-12-09T03:29:54.658Z,4.72
2022-12-09T03:32:26.762Z,5.43
2022-12-09T03:35:01.676Z,4.63
2022-12-09T03:37:29.605Z,5.15
2022-12-09T03:39:59.187Z,5.70
2022-12-09T03:42:39.679Z,4.57
2022-12-09T03:45:10.307Z,4.97
2022-12-09T03:47:38.144Z,4.97
2022-12-09T03:50:06.814Z,5.07
2022-12-09T03:52:48.416Z,4.95
2022-12-09T03:55:44.608Z,4.47
2022-12-09T03:58:13.350Z,4.80
2022-12-09T04:00:40.296Z,5.25
2022-12-09T04:03:07.844Z,4.75
2022-12-09T04:05:35.070Z,5.47
2022-12-09T04:08:02.218Z,5.10
2022-12-09T04:10:29.110Z,7.53
2022-12-09T04:12:55.811Z,10.80
2022-12-09T04:15:22.803Z,17.58
2022-12-09T04:17:49.777Z,24.33
2022-12-09T04:20:16.457Z,48.47
2022-12-09T04:22:43.326Z,43.22
2022-12-09T04:25:10.350Z,22.00
2022-12-09T04:27:37.076Z,21.00
2022-12-09T04:30:05.331Z,9.60
2022-12-09T04:32:33.675Z,19.60
2022-12-09T04:35:00.781Z,14.02
2022-12-09T04:37:27.544Z,6.95
2022-12-09T04:39:54.262Z,6.45
2022-12-09T04:42:21.112Z,5.78
2022-12-09T04:44:48.129Z,5.30
2022-12-09T04:47:14.939Z,6.07
2022-12-09T04:49:42.060Z,5.65
2022-12-09T04:52:08.718Z,5.65
2022-12-09T04:54:35.660Z,5.03
2022-12-09T04:57:02.437Z,5.63
2022-12-09T04:59:31.694Z,4.85
2022-12-09T05:01:58.803Z,5.65
2022-12-09T05:04:26.339Z,5.05
2022-12-09T05:06:53.559Z,5.60
2022-12-09T05:09:20.461Z,5.28
2022-12-09T05:11:47.984Z,5.68
2022-12-09T05:14:14.894Z,5.72
2022-12-09T05:16:41.981Z,5.45
2022-12-09T05:19:09.351Z,5.72
2022-12-09T05:21:36.874Z,4.72
2022-12-09T05:24:03.972Z,5.57
2022-12-09T05:26:30.656Z,5.80
2022-12-09T05:28:57.400Z,6.07
2022-12-09T05:31:24.675Z,5.00
2022-12-09T05:33:52.595Z,5.75
2022-12-09T05:36:25.347Z,5.47
2022-12-09T05:38:53.384Z,5.85
2022-12-09T05:41:21.122Z,6.75
2022-12-09T05:43:48.388Z,6.45
2022-12-09T05:46:16.024Z,6.45
2022-12-09T05:48:43.445Z,7.07
2022-12-09T05:51:23.305Z,6.63
2022-12-09T05:53:51.074Z,6.50
2022-12-09T05:56:19.707Z,5.93
2022-12-09T05:58:46.999Z,7.20
2022-12-09T06:01:14.857Z,7.00
2022-12-09T06:03:41.982Z,6.97
2022-12-09T06:06:14.059Z,7.07
2022-12-09T06:08:42.738Z,7.57
2022-12-09T06:11:16.312Z,6.20
2022-12-09T06:13:44.088Z,8.23
2022-12-09T06:16:12.214Z,9.63
2022-12-09T06:18:39.430Z,9.68
2022-12-09T06:21:12.116Z,11.93
2022-12-09T06:23:43.535Z,7.75
2022-12-09T06:26:29.136Z,9.13
2022-12-09T06:28:57.623Z,8.93
2022-12-09T06:31:25.203Z,13.35
2022-12-09T06:33:55.797Z,10.02
2022-12-09T06:36:23.703Z,19.98
2022-12-09T06:38:50.872Z,10.85
2022-12-09T06:41:17.959Z,11.50
2022-12-09T06:43:44.856Z,14.18
2022-12-09T06:46:17.778Z,12.52
2022-12-09T06:48:45.474Z,13.13
2022-12-09T06:51:12.986Z,9.23
2022-12-09T06:53:39.768Z,8.95
2022-12-09T06:56:12.291Z,8.48
2022-12-09T06:58:42.257Z,10.88
2022-12-09T07:01:19.154Z,10.00
2022-12-09T07:03:49.232Z,9.93
2022-12-09T07:06:32.006Z,10.30
2022-12-09T07:09:02.092Z,10.93
2022-12-09T07:11:30.185Z,9.02
2022-12-09T07:13:57.022Z,9.50
2022-12-09T07:16:24.059Z,8.48
2022-12-09T07:18:51.404Z,9.40
2022-12-09T07:21:20.739Z,8.63
2022-12-09T07:23:48.527Z,9.27
2022-12-09T07:26:16.951Z,8.88
2022-12-09T07:28:44.406Z,12.77
2022-12-09T07:31:24.256Z,12.57
2022-12-09T07:33:52.637Z,8.85
2022-12-09T07:36:22.192Z,8.50
2022-12-09T07:38:53.977Z,8.02
2022-12-09T07:41:21.014Z,7.85
2022-12-09T07:43:48.965Z,8.38
2022-12-09T07:46:19.173Z,8.20
2022-12-09T07:48:47.214Z,11.30
2022-12-09T07:51:14.142Z,11.52
2022-12-09T07:53:41.922Z,26.98
2022-12-09T07:56:14.794Z,18.98
2022-12-09T07:58:42.463Z,12.05
2022-12-09T08:01:12.105Z,9.85
2022-12-09T08:03:43.388Z,12.38
2022-12-09T08:06:16.153Z,8.90
2022-12-09T08:08:44.418Z,9.00
2022-12-09T08:11:23.502Z,11.52
2022-12-09T08:13:51.723Z,10.27
2022-12-09T08:16:20.612Z,9.13
2022-12-09T08:18:49.786Z,11.52
2022-12-09T08:21:19.697Z,9.00
2022-12-09T08:23:47.152Z,11.48
2022-12-09T08:26:16.109Z,9.27
2022-12-09T08:28:43.589Z,9.13
2022-12-09T08:31:14.392Z,8.27
2022-12-09T08:33:41.861Z,13.75
2022-12-09T08:36:27.378Z,11.75
2022-12-09T08:38:55.410Z,17.13
2022-12-09T08:41:35.375Z,13.80
2022-12-09T08:44:07.307Z,9.40
2022-12-09T08:46:35.634Z,10.63
2022-12-09T08:49:02.805Z,8.85
2022-12-09T08:51:30.552Z,11.18
2022-12-09T08:53:58.963Z,10.15
2022-12-09T08:56:27.032Z,11.23
2022-12-09T08:58:54.934Z,11.65
2022-12-09T09:01:32.281Z,8.77
2022-12-09T09:04:06.449Z,9.25
2022-12-09T09:06:34.205Z,8.38
2022-12-09T09:09:01.229Z,8.07
2022-12-09T09:11:28.792Z,10.18
2022-12-09T09:13:55.696Z,7.88
2022-12-09T09:16:25.647Z,14.25
2022-12-09T09:18:53.440Z,10.77
2022-12-09T09:21:23.528Z,11.50
2022-12-09T09:23:51.010Z,12.00
2022-12-09T09:26:23.834Z,14.98
2022-12-09T09:28:50.999Z,11.55
2022-12-09T09:31:20.645Z,9.82
2022-12-09T09:33:48.947Z,9.57
2022-12-09T09:36:20.935Z,13.57
2022-12-09T09:38:49.235Z,12.05
2022-12-09T09:41:40.263Z,12.20
2022-12-09T09:44:34.674Z,11.52
2022-12-09T09:47:12.331Z,11.63
2022-12-09T09:49:55.450Z,12.57
2022-12-09T09:52:25.429Z,10.23
2022-12-09T09:54:53.354Z,9.15
2022-12-09T09:57:47.925Z,40.90
2022-12-09T10:00:41.582Z,12.57
2022-12-09T10:03:35.396Z,9.70
2022-12-09T10:06:20.523Z,9.68
2022-12-09T10:08:59.833Z,23.30
2022-12-09T10:11:33.069Z,12.88
2022-12-09T10:14:20.206Z,10.93
2022-12-09T10:17:25.103Z,11.70
2022-12-09T10:20:05.851Z,11.20
2022-12-09T10:22:44.807Z,9.70
2022-12-09T10:25:17.875Z,9.85
2022-12-09T10:28:16.762Z,12.63
2022-12-09T10:30:44.947Z,11.55
2022-12-09T10:33:14.173Z,10.50
2022-12-09T10:35:42.486Z,9.77
2022-12-09T10:38:12.590Z,9.77
2022-12-09T10:40:45.994Z,10.32
2022-12-09T10:43:37.596Z,10.20
2022-12-09T10:46:19.729Z,9.20
2022-12-09T10:48:47.521Z,10.35
2022-12-09T10:51:17.671Z,10.75
2022-12-09T10:53:50.243Z,9.82
2022-12-09T10:56:20.888Z,10.27
2022-12-09T10:58:47.999Z,10.63
2022-12-09T11:01:19.411Z,10.93
2022-12-09T11:03:49.063Z,9.70
2022-12-09T11:06:24.638Z,10.75
2022-12-09T11:08:58.018Z,11.27
2022-12-09T11:11:49.006Z,11.65
2022-12-09T11:14:24.160Z,11.00
2022-12-09T11:16:57.468Z,9.77
2022-12-09T11:19:39.102Z,12.27
2022-12-09T11:22:41.552Z,12.07
2022-12-09T11:25:12.104Z,11.18
2022-12-09T11:27:42.221Z,15.85
2022-12-09T11:30:24.855Z,11.75
2022-12-09T11:32:56.875Z,12.35
2022-12-09T11:35:44.761Z,12.07
2022-12-09T11:38:30.279Z,10.82
2022-12-09T11:41:09.189Z,11.25
2022-12-09T11:43:50.226Z,11.48
2022-12-09T11:46:26.682Z,12.60
2022-12-09T11:48:53.374Z,12.07
2022-12-09T11:51:31.113Z,12.93
2022-12-09T11:54:11.054Z,11.93
2022-12-09T11:56:39.907Z,11.85
2022-12-09T11:59:10.550Z,11.73
2022-12-09T12:01:46.459Z,12.50
2022-12-09T12:04:17.698Z,12.15
2022-12-09T12:06:48.882Z,11.48
2022-12-09T12:09:29.651Z,13.40
2022-12-09T12:12:09.718Z,10.93
2022-12-09T12:14:41.002Z,11.82
2022-12-09T12:17:16.695Z,12.23
2022-12-09T12:19:45.826Z,11.48
2022-12-09T12:22:54.729Z,11.40
2022-12-09T12:25:40.743Z,11.30
2022-12-09T12:28:25.206Z,11.80
2022-12-09T12:31:08.160Z,12.48
2022-12-09T12:34:26.005Z,11.90
2022-12-09T12:36:55.520Z,11.30
2022-12-09T12:39:43.428Z,12.80
2022-12-09T12:42:41.555Z,13.18
2022-12-09T12:45:41.443Z,12.68
2022-12-09T12:48:18.287Z,11.60
2022-12-09T12:50:54.072Z,12.48
2022-12-09T12:53:27.656Z,12.20
2022-12-09T12:56:14.737Z,11.32
2022-12-09T12:59:13.582Z,12.95
2022-12-09T13:01:57.341Z,12.98
2022-12-09T13:04:30.257Z,13.93
2022-12-09T13:07:09.703Z,12.27
2022-12-09T13:09:59.026Z,12.57
2022-12-09T13:12:49.133Z,12.90
2022-12-09T13:15:18.200Z,12.43
2022-12-09T13:17:47.189Z,12.48
2022-12-09T13:20:22.785Z,12.82
2022-12-09T13:23:23.459Z,12.70
2022-12-09T13:26:06.253Z,12.23
2022-12-09T13:29:09.735Z,13.02
2022-12-09T13:31:42.285Z,12.57
2022-12-09T13:34:38.419Z,11.45
2022-12-09T13:37:05.534Z,11.98
2022-12-09T13:39:41.546Z,11.48
2022-12-09T13:42:49.869Z,11.88
2022-12-09T13:45:18.952Z,11.55
2022-12-09T13:47:46.174Z,15.07
2022-12-09T13:50:31.116Z,12.65
2022-12-09T13:53:04.659Z,12.18
2022-12-09T13:55:39.981Z,13.40
2022-12-09T13:58:39.169Z,12.98
2022-12-09T14:01:11.830Z,14.82
2022-12-09T14:03:58.092Z,14.35
2022-12-09T14:06:26.775Z,13.68
2022-12-09T14:08:59.294Z,13.30
2022-12-09T14:11:37.849Z,15.45
2022-12-09T14:14:23.159Z,14.85
2022-12-09T14:16:51.720Z,12.52
2022-12-09T14:19:24.304Z,16.05
2022-12-09T14:22:22.150Z,14.20
2022-12-09T14:24:50.419Z,14.38
2022-12-09T14:27:27.273Z,13.52
2022-12-09T14:30:18.199Z,12.70
2022-12-09T14:32:50.986Z,14.10
2022-12-09T14:35:29.518Z,14.20
2022-12-09T14:38:25.181Z,15.48
2022-12-09T14:40:52.738Z,14.95
2022-12-09T14:43:34.281Z,14.07
2022-12-09T14:46:07.316Z,15.57
2022-12-09T14:48:40.826Z,14.65
2022-12-09T14:51:17.004Z,14.27
2022-12-09T14:53:48.218Z,14.25
2022-12-09T14:56:18.772Z,14.20
2022-12-09T14:58:50.372Z,14.57
2022-12-09T15:01:18.362Z,16.15
2022-12-09T15:03:59.787Z,15.88
2022-12-09T15:06:26.978Z,14.43
2022-12-09T15:08:56.719Z,15.02
2022-12-09T15:11:28.037Z,12.55
2022-12-09T15:14:17.225Z,11.53
2022-12-09T15:16:49.126Z,14.80
2022-12-09T15:19:57.918Z,14.45
2022-12-09T15:22:23.092Z,14.60
2022-12-09T15:24:51.335Z,14.98
2022-12-09T15:27:20.709Z,20.70
2022-12-09T15:29:47.685Z,18.40
2022-12-09T15:32:29.882Z,20.05
2022-12-09T15:35:19.770Z,15.43
2022-12-09T15:37:49.541Z,17.08
2022-12-09T15:40:19.927Z,14.98
2022-12-09T15:42:50.948Z,16.08
2022-12-09T15:45:23.877Z,15.68
2022-12-09T15:48:07.156Z,16.05
2022-12-09T15:50:41.755Z,42.22
2022-12-09T15:53:20.274Z,16.58
2022-12-09T15:55:51.536Z,15.02
2022-12-09T15:58:23.110Z,15.23
2022-12-09T16:00:51.955Z,15.98
2022-12-09T16:03:25.385Z,16.88
2022-12-09T16:05:58.388Z,15.93
2022-12-09T16:08:39.637Z,16.58
2022-12-09T16:11:06.622Z,15.98
2022-12-09T16:13:33.451Z,16.63
2022-12-09T16:16:02.894Z,16.63
2022-12-09T16:18:34.526Z,16.20
2022-12-09T16:21:07.604Z,12.20
2022-12-09T16:23:34.512Z,15.55
2022-12-09T16:26:06.986Z,16.67
2022-12-09T16:28:35.255Z,16.42
2022-12-09T16:31:16.698Z,16.33
2022-12-09T16:33:48.554Z,16.73
2022-12-09T16:36:20.137Z,17.65
2022-12-09T16:39:07.180Z,22.23
2022-12-09T16:41:52.185Z,23.30
2022-12-09T16:44:32.631Z,16.98
2022-12-09T16:47:24.975Z,16.20
2022-12-09T16:49:51.704Z,18.23
2022-12-09T16:52:23.376Z,16.45
2022-12-09T16:54:51.278Z,17.83
2022-12-09T16:57:19.595Z,20.08
2022-12-09T16:59:46.934Z,21.63
2022-12-09T17:02:36.749Z,21.00
2022-12-09T17:05:05.046Z,20.15
2022-12-09T17:07:31.920Z,21.15
2022-12-09T17:09:58.737Z,41.58
2022-12-09T17:12:25.521Z,21.70
2022-12-09T17:14:52.493Z,21.25
2022-12-09T17:17:19.291Z,17.92
2022-12-09T17:19:46.059Z,18.50
2022-12-09T17:22:12.787Z,30.15
2022-12-09T17:24:39.813Z,18.90
2022-12-09T17:27:06.513Z,19.27
2022-12-09T17:29:33.234Z,19.80
2022-12-09T17:31:59.888Z,25.55
2022-12-09T17:34:26.695Z,20.00
2022-12-09T17:36:54.893Z,20.13
2022-12-09T17:39:23.893Z,20.05
2022-12-09T17:41:51.088Z,20.25
2022-12-09T17:44:17.915Z,19.17
2022-12-09T17:46:44.588Z,20.30
2022-12-09T17:49:11.301Z,24.35
2022-12-09T17:51:38.078Z,18.70
2022-12-09T17:54:04.901Z,18.48
2022-12-09T17:56:31.856Z,20.10
2022-12-09T17:59:08.368Z,19.88
2022-12-09T18:01:37.003Z,20.27
2022-12-09T18:04:10.073Z,20.00
2022-12-09T18:06:39.126Z,19.15
2022-12-09T18:09:08.476Z,19.63
2022-12-09T18:11:36.204Z,22.10
2022-12-09T18:14:03.541Z,19.80
2022-12-09T18:16:30.710Z,18.25
2022-12-09T18:19:10.238Z,19.38
2022-12-09T18:21:37.257Z,19.70
2022-12-09T18:24:04.243Z,18.70
2022-12-09T18:26:35.268Z,20.33
2022-12-09T18:29:05.101Z,20.92
2022-12-09T18:31:31.822Z,19.55
2022-12-09T18:33:58.542Z,20.27
2022-12-09T18:36:27.503Z,19.45
2022-12-09T18:38:54.217Z,19.80
2022-12-09T18:41:29.420Z,20.05
2022-12-09T18:43:57.692Z,17.45
2022-12-09T18:46:30.103Z,20.48
2022-12-09T18:49:08.664Z,18.38
2022-12-09T18:51:35.817Z,18.67
2022-12-09T18:54:04.029Z,19.67
2022-12-09T18:56:31.948Z,19.42
2022-12-09T18:59:07.876Z,25.63
2022-12-09T19:01:39.417Z,29.15
2022-12-09T19:04:10.295Z,53.88
2022-12-09T19:06:38.873Z,21.75
2022-12-09T19:09:08.942Z,21.52
2022-12-09T19:11:37.617Z,29.35
2022-12-09T19:14:05.859Z,26.92
2022-12-09T19:16:33.252Z,23.65
2022-12-09T19:19:07.151Z,19.60
2022-12-09T19:21:35.863Z,19.52
2022-12-09T19:24:02.778Z,20.00
2022-12-09T19:26:31.976Z,24.98
2022-12-09T19:29:08.686Z,29.45
2022-12-09T19:31:38.179Z,27.10
2022-12-09T19:34:28.636Z,35.38
2022-12-09T19:36:59.673Z,24.02
2022-12-09T19:39:33.925Z,25.52
2022-12-09T19:42:01.409Z,24.25
2022-12-09T19:44:59.385Z,25.30
2022-12-09T19:47:15.274Z,55.72
2022-12-09T19:49:44.195Z,40.63
2022-12-09T19:52:11.741Z,22.98
2022-12-09T19:54:39.094Z,47.10
2022-12-09T19:57:05.786Z,29.20
2022-12-09T19:59:32.526Z,23.48
2022-12-09T20:01:59.462Z,25.77
2022-12-09T20:07:14.901Z,34.70
2022-12-09T20:09:41.537Z,24.08
2022-12-09T20:12:08.206Z,25.77
2022-12-09T20:14:34.960Z,25.05
2022-12-09T20:17:01.873Z,25.70
2022-12-09T20:19:28.760Z,25.92
2022-12-09T20:21:55.535Z,24.65
2022-12-09T20:24:22.330Z,24.65
2022-12-09T20:26:49.097Z,28.67
2022-12-09T20:29:15.748Z,27.50
2022-12-09T20:31:43.009Z,25.52
2022-12-09T20:34:16.041Z,25.33
2022-12-09T20:36:44.366Z,30.92
2022-12-09T20:39:14.982Z,25.10
2022-12-09T20:41:42.889Z,24.70
2022-12-09T20:44:11.029Z,26.92
2022-12-09T20:46:38.955Z,24.02
2022-12-09T20:49:05.700Z,24.23
2022-12-09T20:51:37.657Z,24.95
2022-12-09T20:54:05.499Z,26.35
2022-12-09T20:56:32.490Z,25.25
2022-12-09T20:58:59.807Z,24.48
2022-12-09T21:01:29.533Z,25.92
2022-12-09T21:03:57.840Z,25.55
2022-12-09T21:06:27.150Z,25.33
2022-12-09T21:08:54.025Z,24.13
2022-12-09T21:11:24.096Z,24.55
2022-12-09T21:13:53.296Z,24.10
2022-12-09T21:16:25.287Z,24.60
2022-12-09T21:18:54.662Z,25.08
2022-12-09T21:21:23.403Z,23.88
2022-12-09T21:23:54.040Z,24.15
2022-12-09T21:26:22.562Z,22.25
2022-12-09T21:28:49.880Z,23.38
2022-12-09T21:31:22.026Z,21.92
2022-12-09T21:33:50.282Z,104.18
2022-12-09T21:36:23.574Z,97.95
2022-12-09T21:38:50.841Z,261.67
2022-12-09T21:41:20.440Z,57.03
2022-12-09T21:43:47.171Z,28.88
2022-12-09T21:46:20.325Z,29.58
2022-12-09T21:48:52.110Z,24.33
2022-12-09T21:51:20.000Z,27.20
2022-12-09T21:53:47.776Z,31.35
2022-12-09T21:56:17.247Z,29.48
2022-12-09T21:58:45.589Z,25.63
2022-12-09T22:01:17.588Z,26.95
2022-12-09T22:03:45.042Z,31.10
2022-12-09T22:06:12.588Z,24.17
2022-12-09T22:08:40.291Z,25.83
2022-12-09T22:11:30.848Z,24.23
2022-12-09T22:13:59.232Z,22.95
2022-12-09T22:16:31.258Z,24.75
2022-12-09T22:19:00.403Z,29.83
2022-12-09T22:21:29.829Z,26.77
2022-12-09T22:23:59.980Z,29.08
2022-12-09T22:26:27.538Z,26.40
2022-12-09T22:28:54.791Z,31.30
2022-12-09T22:31:24.365Z,26.65
2022-12-09T22:33:52.937Z,28.85
2022-12-09T22:36:20.556Z,27.90
2022-12-09T22:38:48.376Z,25.67
2022-12-09T22:52:09.714Z,24.15
2022-12-09T22:54:36.379Z,24.70
2022-12-09T22:57:03.252Z,25.25
2022-12-09T22:59:30.266Z,25.77
2022-12-09T23:01:56.971Z,25.88
2022-12-09T23:04:23.872Z,25.27
2022-12-09T23:06:50.946Z,25.80
2022-12-09T23:09:25.110Z,26.38
2022-12-09T23:11:52.564Z,24.02
2022-12-09T23:14:19.757Z,24.20
2022-12-09T23:16:46.784Z,24.50
2022-12-09T23:19:13.585Z,25.85
2022-12-09T23:21:41.301Z,23.13
2022-12-09T23:24:12.142Z,22.85
2022-12-09T23:26:40.264Z,23.65
2022-12-09T23:29:11.637Z,22.83
2022-12-09T23:31:38.460Z,26.23
2022-12-09T23:34:06.606Z,24.20
2022-12-09T23:36:36.907Z,23.95
2022-12-09T23:39:09.387Z,23.42
2022-12-09T23:41:36.619Z,23.33
2022-12-09T23:44:03.349Z,26.80
2022-12-09T23:46:30.416Z,24.95
2022-12-09T23:48:57.335Z,25.63
2022-12-09T23:51:31.829Z,24.67
2022-12-09T23:54:02.103Z,26.80
2022-12-09T23:56:31.320Z,24.95
2022-12-09T23:59:01.247Z,25.80
